createdAt,value
2017-07-02T00:00:24.837Z,0
2017-07-02T00:01:25.413Z,0
2017-07-02T00:02:25.990Z,0
2017-07-02T00:03:26.566Z,0
2017-07-02T00:04:27.142Z,0
2017-07-02T00:05:27.720Z,0
2017-07-02T00:06:28.301Z,0
2017-07-02T00:07:28.890Z,0
2017-07-02T00:08:29.468Z,0
2017-07-02T00:09:30.061Z,0
2017-07-02T00:10:30.645Z,0
2017-07-02T00:11:31.219Z,0
2017-07-02T00:12:31.796Z,0
2017-07-02T00:13:32.373Z,0
2017-07-02T00:14:32.966Z,0
2017-07-02T00:15:33.559Z,0
2017-07-02T00:16:34.137Z,0
2017-07-02T00:17:34.716Z,0
2017-07-02T00:18:35.295Z,0
2017-07-02T00:19:35.873Z,0
2017-07-02T00:20:36.450Z,0
2017-07-02T00:21:37.026Z,0
2017-07-02T00:22:37.604Z,0
2017-07-02T00:23:38.183Z,0
2017-07-02T00:24:38.761Z,0
2017-07-02T00:25:39.339Z,0
2017-07-02T00:26:39.916Z,0
2017-07-02T00:27:40.491Z,0
2017-07-02T00:28:41.068Z,0
2017-07-02T00:29:41.645Z,0
2017-07-02T00:30:42.223Z,0
2017-07-02T00:31:42.804Z,0
2017-07-02T00:32:43.379Z,0
2017-07-02T00:33:43.957Z,0
2017-07-02T00:34:44.535Z,0
2017-07-02T00:35:45.111Z,0
2017-07-02T00:36:45.690Z,0
2017-07-02T00:37:46.268Z,0
2017-07-02T00:38:46.862Z,0
2017-07-02T00:39:47.459Z,0
2017-07-02T00:40:48.048Z,0
2017-07-02T00:41:48.627Z,0
2017-07-02T00:42:49.220Z,0
2017-07-02T00:43:49.798Z,0
2017-07-02T00:44:50.378Z,0
2017-07-02T00:45:50.954Z,0
2017-07-02T00:46:51.531Z,0
2017-07-02T00:47:52.109Z,0
2017-07-02T00:48:52.687Z,0
2017-07-02T00:49:53.265Z,0
2017-07-02T00:50:53.851Z,0
2017-07-02T00:51:54.420Z,0
2017-07-02T00:52:54.998Z,0
2017-07-02T00:53:55.575Z,0
2017-07-02T00:54:56.155Z,0
2017-07-02T00:55:56.749Z,0
2017-07-02T00:56:57.326Z,0
2017-07-02T00:57:57.905Z,0
2017-07-02T00:58:58.482Z,0
2017-07-02T00:59:59.058Z,0
2017-07-02T01:00:59.634Z,0
2017-07-02T01:02:00.213Z,0
2017-07-02T01:03:00.802Z,0
2017-07-02T01:04:01.381Z,0
2017-07-02T01:05:01.958Z,0
2017-07-02T01:06:02.539Z,0
2017-07-02T01:07:03.114Z,0
2017-07-02T01:08:03.707Z,0
2017-07-02T01:09:04.285Z,0
2017-07-02T01:10:04.862Z,0
2017-07-02T01:11:05.439Z,0
2017-07-02T01:12:06.018Z,0
2017-07-02T01:13:06.597Z,0
2017-07-02T01:14:07.178Z,0
2017-07-02T01:15:07.770Z,0
2017-07-02T01:16:08.347Z,0
2017-07-02T01:17:08.928Z,0
2017-07-02T01:18:09.504Z,0
2017-07-02T01:19:10.081Z,0
2017-07-02T01:20:10.660Z,0
2017-07-02T01:21:11.236Z,0
2017-07-02T01:22:11.815Z,0
2017-07-02T01:23:12.408Z,0
2017-07-02T01:24:12.985Z,0
2017-07-02T01:25:13.562Z,0
2017-07-02T01:26:14.139Z,0
2017-07-02T01:27:14.718Z,0
2017-07-02T01:28:15.297Z,0
2017-07-02T01:29:15.874Z,0
2017-07-02T01:30:16.451Z,0
2017-07-02T01:31:17.043Z,0
2017-07-02T01:32:17.621Z,0
2017-07-02T01:33:18.198Z,0
2017-07-02T01:34:18.790Z,0
2017-07-02T01:35:19.368Z,0
2017-07-02T01:36:19.961Z,0
2017-07-02T01:37:20.553Z,0
2017-07-02T01:38:21.130Z,0
2017-07-02T01:39:21.708Z,0
2017-07-02T01:40:22.286Z,0
2017-07-02T01:41:22.867Z,0
2017-07-02T01:42:23.460Z,0
2017-07-02T01:43:24.053Z,0
2017-07-02T01:44:24.630Z,0
2017-07-02T01:45:25.209Z,0
2017-07-02T01:46:25.787Z,0
2017-07-02T01:47:26.379Z,0
2017-07-02T01:48:26.955Z,0
2017-07-02T01:49:27.531Z,0
2017-07-02T01:50:28.110Z,0
2017-07-02T01:51:28.688Z,0
2017-07-02T01:52:29.264Z,0
2017-07-02T01:53:29.842Z,0
2017-07-02T01:54:30.420Z,0
2017-07-02T01:55:31.017Z,0
2017-07-02T01:56:31.588Z,0
2017-07-02T01:57:32.165Z,0
2017-07-02T01:58:32.743Z,0
2017-07-02T01:59:33.322Z,0
2017-07-02T02:00:33.898Z,0
2017-07-02T02:01:34.475Z,0
2017-07-02T02:02:35.051Z,0
2017-07-02T02:03:35.628Z,0
2017-07-02T02:04:36.206Z,0
2017-07-02T02:05:36.784Z,0
2017-07-02T02:06:37.363Z,0
2017-07-02T02:07:37.940Z,0
2017-07-02T02:08:38.516Z,0
2017-07-02T02:09:39.092Z,0
2017-07-02T02:10:39.669Z,0
2017-07-02T02:11:40.247Z,0
2017-07-02T02:12:40.824Z,0
2017-07-02T02:13:41.402Z,0
2017-07-02T02:14:41.978Z,0
2017-07-02T02:15:42.554Z,0
2017-07-02T02:16:43.134Z,0
2017-07-02T02:17:43.712Z,0
2017-07-02T02:18:44.290Z,0
2017-07-02T02:19:44.868Z,0
2017-07-02T02:20:45.444Z,0
2017-07-02T02:21:46.023Z,0
2017-07-02T02:22:46.601Z,0
2017-07-02T02:23:47.179Z,0
2017-07-02T02:24:47.754Z,0
2017-07-02T02:25:48.330Z,0
2017-07-02T02:26:48.907Z,0
2017-07-02T02:27:49.484Z,0
2017-07-02T02:28:50.063Z,0
2017-07-02T02:29:50.640Z,0
2017-07-02T02:30:51.219Z,0
2017-07-02T02:31:51.795Z,0
2017-07-02T02:32:52.373Z,0
2017-07-02T02:33:52.951Z,0
2017-07-02T02:34:53.529Z,0
2017-07-02T02:35:54.106Z,0
2017-07-02T02:36:54.682Z,0
2017-07-02T02:37:55.258Z,0
2017-07-02T02:38:55.836Z,0
2017-07-02T02:39:56.414Z,0
2017-07-02T02:40:56.993Z,0
2017-07-02T02:41:57.570Z,0
2017-07-02T02:42:58.147Z,0
2017-07-02T02:43:58.726Z,0
2017-07-02T02:44:59.319Z,0
2017-07-02T02:45:59.896Z,0
2017-07-02T02:47:00.475Z,0
2017-07-02T02:48:01.051Z,0
2017-07-02T02:49:01.629Z,0
2017-07-02T02:50:02.207Z,0
2017-07-02T02:51:02.785Z,0
2017-07-02T02:52:03.364Z,0
2017-07-02T02:53:03.940Z,0
2017-07-02T02:54:04.517Z,0
2017-07-02T02:55:05.111Z,0
2017-07-02T02:56:05.688Z,0
2017-07-02T02:57:06.265Z,0
2017-07-02T02:58:06.857Z,0
2017-07-02T02:59:07.433Z,0
2017-07-02T03:00:08.010Z,0
2017-07-02T03:01:08.588Z,0
2017-07-02T03:02:09.166Z,0
2017-07-02T03:03:09.743Z,0
2017-07-02T03:04:10.319Z,0
2017-07-02T03:05:10.895Z,0
2017-07-02T03:06:11.474Z,0
2017-07-02T03:07:12.051Z,0
2017-07-02T03:08:12.631Z,0
2017-07-02T03:09:13.207Z,0
2017-07-02T03:10:13.784Z,0
2017-07-02T03:11:14.365Z,0
2017-07-02T03:12:14.941Z,0
2017-07-02T03:13:15.518Z,0
2017-07-02T03:14:16.097Z,0
2017-07-02T03:15:16.672Z,0
2017-07-02T03:16:17.247Z,0
2017-07-02T03:17:17.825Z,0
2017-07-02T03:18:18.403Z,0
2017-07-02T03:19:18.981Z,0
2017-07-02T03:20:19.559Z,0
2017-07-02T03:21:20.137Z,0
2017-07-02T03:22:20.716Z,0
2017-07-02T03:23:21.295Z,0
2017-07-02T03:24:21.874Z,0
2017-07-02T03:25:22.452Z,0
2017-07-02T03:26:23.032Z,0
2017-07-02T03:27:23.610Z,0
2017-07-02T03:28:24.189Z,0
2017-07-02T03:29:24.767Z,0
2017-07-02T03:30:25.345Z,0
2017-07-02T03:31:25.925Z,0
2017-07-02T03:32:26.503Z,0
2017-07-02T03:33:27.081Z,0
2017-07-02T03:34:27.660Z,0
2017-07-02T03:35:28.242Z,0
2017-07-02T03:36:28.818Z,0
2017-07-02T03:37:29.395Z,0
2017-07-02T03:38:29.974Z,0
2017-07-02T03:39:30.554Z,0
2017-07-02T03:40:31.132Z,0
2017-07-02T03:41:31.712Z,0
2017-07-02T03:42:32.288Z,0
2017-07-02T03:43:32.867Z,0
2017-07-02T03:44:33.447Z,0
2017-07-02T03:45:34.043Z,0
2017-07-02T03:46:34.620Z,0
2017-07-02T03:47:35.199Z,0
2017-07-02T03:48:35.778Z,0
2017-07-02T03:49:36.356Z,0
2017-07-02T03:50:36.934Z,0
2017-07-02T03:51:37.512Z,0
2017-07-02T03:52:38.090Z,0
2017-07-02T03:53:38.670Z,0
2017-07-02T03:54:39.264Z,0
2017-07-02T03:55:39.842Z,0
2017-07-02T03:56:40.420Z,0
2017-07-02T03:57:40.998Z,0
2017-07-02T03:58:41.577Z,0
2017-07-02T03:59:42.157Z,0
2017-07-02T04:00:42.734Z,0
2017-07-02T04:01:43.312Z,0
2017-07-02T04:02:43.893Z,0
2017-07-02T04:03:44.472Z,0
2017-07-02T04:04:45.050Z,0
2017-07-02T04:05:45.629Z,0
2017-07-02T04:06:46.208Z,0
2017-07-02T04:07:46.789Z,0
2017-07-02T04:08:47.367Z,0
2017-07-02T04:09:47.946Z,0
2017-07-02T04:10:48.526Z,0
2017-07-02T04:11:49.103Z,0
2017-07-02T04:12:49.697Z,0
2017-07-02T04:13:50.276Z,0
2017-07-02T04:14:50.855Z,0
2017-07-02T04:15:51.430Z,0
2017-07-02T04:16:52.012Z,0
2017-07-02T04:17:52.586Z,0
2017-07-02T04:18:53.164Z,0
2017-07-02T04:19:53.743Z,0
2017-07-02T04:20:54.321Z,0
2017-07-02T04:21:54.900Z,0
2017-07-02T04:22:55.476Z,0
2017-07-02T04:23:56.055Z,0
2017-07-02T04:24:56.633Z,0
2017-07-02T04:25:57.212Z,0
2017-07-02T04:26:57.804Z,0
2017-07-02T04:27:58.384Z,0
2017-07-02T04:28:58.961Z,0
2017-07-02T04:29:59.539Z,0
2017-07-02T04:31:00.135Z,0
2017-07-02T04:32:00.709Z,0
2017-07-02T04:33:01.289Z,0
2017-07-02T04:34:01.871Z,5
2017-07-02T04:35:02.449Z,5
2017-07-02T04:36:03.029Z,5
2017-07-02T04:37:03.609Z,5
2017-07-02T04:38:04.188Z,5
2017-07-02T04:39:04.770Z,5
2017-07-02T04:40:05.361Z,5
2017-07-02T04:41:05.939Z,5
2017-07-02T04:42:06.519Z,5
2017-07-02T04:43:07.099Z,5
2017-07-02T04:44:07.695Z,5
2017-07-02T04:45:08.274Z,5
2017-07-02T04:46:08.852Z,5
2017-07-02T04:47:09.433Z,5
2017-07-02T04:48:10.012Z,5
2017-07-02T04:49:10.591Z,5
2017-07-02T04:50:11.173Z,5
2017-07-02T04:51:11.751Z,5
2017-07-02T04:52:12.331Z,5
2017-07-02T04:53:12.910Z,5
2017-07-02T04:54:13.491Z,5
2017-07-02T04:55:14.084Z,5
2017-07-02T04:56:14.665Z,5
2017-07-02T04:57:15.261Z,5
2017-07-02T04:58:15.839Z,5
2017-07-02T04:59:16.419Z,5
2017-07-02T05:00:17.000Z,5
2017-07-02T05:01:17.579Z,5
2017-07-02T05:02:18.158Z,5
2017-07-02T05:03:18.740Z,5
2017-07-02T05:04:19.320Z,5
2017-07-02T05:05:19.897Z,5
2017-07-02T05:06:20.478Z,5
2017-07-02T05:07:21.057Z,5
2017-07-02T05:08:21.636Z,5
2017-07-02T05:09:22.215Z,5
2017-07-02T05:10:22.794Z,5
2017-07-02T05:11:23.374Z,5
2017-07-02T05:12:23.952Z,5
2017-07-02T05:13:24.531Z,5
2017-07-02T05:14:25.122Z,5
2017-07-02T05:15:25.702Z,5
2017-07-02T05:16:26.282Z,5
2017-07-02T05:17:26.862Z,5
2017-07-02T05:18:27.440Z,5
2017-07-02T05:19:28.020Z,5
2017-07-02T05:20:28.601Z,5
2017-07-02T05:21:29.179Z,5
2017-07-02T05:22:29.759Z,5
2017-07-02T05:23:30.341Z,5
2017-07-02T05:24:30.920Z,5
2017-07-02T05:25:31.499Z,5
2017-07-02T05:26:32.079Z,10
2017-07-02T05:27:32.660Z,10
2017-07-02T05:28:33.256Z,10
2017-07-02T05:29:33.852Z,10
2017-07-02T05:30:34.449Z,10
2017-07-02T05:31:35.029Z,10
2017-07-02T05:32:35.611Z,10
2017-07-02T05:33:36.192Z,10
2017-07-02T05:34:36.771Z,10
2017-07-02T05:35:37.353Z,10
2017-07-02T05:36:37.932Z,10
2017-07-02T05:37:38.513Z,10
2017-07-02T05:38:39.095Z,10
2017-07-02T05:39:39.674Z,10
2017-07-02T05:40:40.254Z,10
2017-07-02T05:41:40.836Z,10
2017-07-02T05:42:41.416Z,10
2017-07-02T05:43:41.996Z,10
2017-07-02T05:44:42.592Z,10
2017-07-02T05:45:43.174Z,10
2017-07-02T05:46:43.753Z,10
2017-07-02T05:47:44.335Z,10
2017-07-02T05:48:44.917Z,10
2017-07-02T05:49:45.497Z,10
2017-07-02T05:50:46.077Z,10
2017-07-02T05:51:46.659Z,10
2017-07-02T05:52:47.239Z,10
2017-07-02T05:53:47.821Z,10
2017-07-02T05:54:48.402Z,10
2017-07-02T05:55:48.983Z,10
2017-07-02T05:56:49.563Z,10
2017-07-02T05:57:50.145Z,10
2017-07-02T05:58:50.725Z,10
2017-07-02T05:59:51.309Z,10
2017-07-02T06:00:51.887Z,10
2017-07-02T06:01:52.467Z,10
2017-07-02T06:02:53.047Z,10
2017-07-02T06:03:53.629Z,10
2017-07-02T06:04:54.209Z,10
2017-07-02T06:05:54.789Z,10
2017-07-02T06:06:55.370Z,5
2017-07-02T06:07:55.949Z,5
2017-07-02T06:08:56.529Z,5
2017-07-02T06:09:57.108Z,5
2017-07-02T06:10:57.689Z,5
2017-07-02T06:11:58.269Z,5
2017-07-02T06:12:58.846Z,5
2017-07-02T06:13:59.427Z,10
2017-07-02T06:15:00.023Z,10
2017-07-02T06:16:00.607Z,10
2017-07-02T06:17:01.185Z,10
2017-07-02T06:18:01.765Z,10
2017-07-02T06:19:02.347Z,10
2017-07-02T06:20:02.927Z,15
2017-07-02T06:21:03.506Z,15
2017-07-02T06:22:04.089Z,15
2017-07-02T06:23:04.669Z,15
2017-07-02T06:24:05.248Z,15
2017-07-02T06:25:05.831Z,15
2017-07-02T06:26:06.412Z,15
2017-07-02T06:27:06.991Z,15
2017-07-02T06:28:07.574Z,15
2017-07-02T06:29:08.155Z,15
2017-07-02T06:30:08.737Z,15
2017-07-02T06:31:09.317Z,15
2017-07-02T06:32:09.897Z,15
2017-07-02T06:33:10.477Z,15
2017-07-02T06:34:11.059Z,15
2017-07-02T06:35:11.640Z,15
2017-07-02T06:36:12.220Z,15
2017-07-02T06:37:12.803Z,15
2017-07-02T06:38:13.383Z,15
2017-07-02T06:39:13.964Z,15
2017-07-02T06:40:14.547Z,15
2017-07-02T06:41:15.127Z,15
2017-07-02T06:42:15.723Z,15
2017-07-02T06:43:16.303Z,15
2017-07-02T06:44:16.885Z,15
2017-07-02T06:45:17.465Z,15
2017-07-02T06:46:18.047Z,15
2017-07-02T06:47:18.632Z,15
2017-07-02T06:48:19.228Z,15
2017-07-02T06:49:19.823Z,15
2017-07-02T06:50:20.404Z,10
2017-07-02T06:51:20.984Z,10
2017-07-02T06:52:21.581Z,10
2017-07-02T06:53:22.164Z,10
2017-07-02T06:54:22.748Z,10
2017-07-02T06:55:23.362Z,10
2017-07-02T06:56:23.907Z,10
2017-07-02T06:57:24.488Z,10
2017-07-02T06:58:25.073Z,10
2017-07-02T06:59:25.652Z,10
2017-07-02T07:00:26.232Z,10
2017-07-02T07:01:26.813Z,10
2017-07-02T07:02:27.395Z,10
2017-07-02T07:03:27.992Z,10
2017-07-02T07:04:28.573Z,10
2017-07-02T07:05:29.154Z,10
2017-07-02T07:06:29.735Z,10
2017-07-02T07:07:30.316Z,10
2017-07-02T07:08:30.896Z,10
2017-07-02T07:09:31.479Z,10
2017-07-02T07:10:32.058Z,10
2017-07-02T07:11:32.642Z,15
2017-07-02T07:12:33.222Z,15
2017-07-02T07:13:33.802Z,15
2017-07-02T07:14:34.383Z,20
2017-07-02T07:15:34.965Z,20
2017-07-02T07:16:35.544Z,20
2017-07-02T07:17:36.130Z,15
2017-07-02T07:18:36.705Z,15
2017-07-02T07:19:37.288Z,15
2017-07-02T07:20:37.869Z,10
2017-07-02T07:21:38.449Z,10
2017-07-02T07:22:39.033Z,10
2017-07-02T07:23:39.612Z,5
2017-07-02T07:24:40.190Z,5
2017-07-02T07:25:40.770Z,5
2017-07-02T07:26:41.351Z,5
2017-07-02T07:27:41.930Z,5
2017-07-02T07:28:42.509Z,5
2017-07-02T07:29:43.089Z,5
2017-07-02T07:30:43.670Z,5
2017-07-02T07:31:44.265Z,5
2017-07-02T07:32:44.845Z,5
2017-07-02T07:33:45.426Z,5
2017-07-02T07:34:46.022Z,5
2017-07-02T07:35:46.602Z,5
2017-07-02T07:36:47.183Z,5
2017-07-02T07:37:47.764Z,10
2017-07-02T07:38:48.345Z,10
2017-07-02T07:39:48.927Z,10
2017-07-02T07:40:49.508Z,10
2017-07-02T07:41:50.088Z,10
2017-07-02T07:42:50.671Z,10
2017-07-02T07:43:51.252Z,10
2017-07-02T07:44:51.833Z,10
2017-07-02T07:45:52.415Z,10
2017-07-02T07:46:52.997Z,10
2017-07-02T07:47:53.578Z,10
2017-07-02T07:48:54.161Z,10
2017-07-02T07:49:54.741Z,10
2017-07-02T07:50:55.323Z,15
2017-07-02T07:51:55.904Z,20
2017-07-02T07:52:56.485Z,20
2017-07-02T07:53:57.067Z,20
2017-07-02T07:54:57.660Z,20
2017-07-02T07:55:58.242Z,20
2017-07-02T07:56:58.823Z,20
2017-07-02T07:57:59.419Z,20
2017-07-02T07:59:00.000Z,20
2017-07-02T08:00:00.580Z,20
2017-07-02T08:01:01.162Z,20
2017-07-02T08:02:01.745Z,20
2017-07-02T08:03:02.324Z,25
2017-07-02T08:04:02.906Z,25
2017-07-02T08:05:03.487Z,20
2017-07-02T08:06:04.067Z,20
2017-07-02T08:07:04.650Z,20
2017-07-02T08:08:05.232Z,20
2017-07-02T08:09:05.814Z,20
2017-07-02T08:10:06.396Z,20
2017-07-02T08:11:06.979Z,20
2017-07-02T08:12:07.560Z,20
2017-07-02T08:13:08.142Z,20
2017-07-02T08:14:08.724Z,20
2017-07-02T08:15:09.305Z,20
2017-07-02T08:16:09.888Z,15
2017-07-02T08:17:10.485Z,10
2017-07-02T08:18:11.068Z,10
2017-07-02T08:19:11.650Z,10
2017-07-02T08:20:12.232Z,15
2017-07-02T08:21:12.814Z,10
2017-07-02T08:22:13.397Z,10
2017-07-02T08:23:13.978Z,10
2017-07-02T08:24:14.559Z,10
2017-07-02T08:25:15.142Z,10
2017-07-02T08:26:15.722Z,10
2017-07-02T08:27:16.305Z,15
2017-07-02T08:28:16.888Z,20
2017-07-02T08:29:17.470Z,20
2017-07-02T08:30:18.051Z,20
2017-07-02T08:31:18.636Z,20
2017-07-02T08:32:19.217Z,20
2017-07-02T08:33:19.798Z,20
2017-07-02T08:34:20.382Z,20
2017-07-02T08:35:20.962Z,15
2017-07-02T08:36:21.543Z,15
2017-07-02T08:37:22.130Z,20
2017-07-02T08:38:22.709Z,20
2017-07-02T08:39:23.291Z,20
2017-07-02T08:40:23.873Z,20
2017-07-02T08:41:24.454Z,20
2017-07-02T08:42:25.036Z,15
2017-07-02T08:43:25.618Z,15
2017-07-02T08:44:26.213Z,15
2017-07-02T08:45:26.794Z,15
2017-07-02T08:46:27.377Z,15
2017-07-02T08:47:27.958Z,20
2017-07-02T08:48:28.538Z,20
2017-07-02T08:49:29.134Z,20
2017-07-02T08:50:29.714Z,20
2017-07-02T08:51:30.295Z,15
2017-07-02T08:52:30.883Z,15
2017-07-02T08:53:31.471Z,15
2017-07-02T08:54:32.054Z,15
2017-07-02T08:55:32.635Z,20
2017-07-02T08:56:33.216Z,20
2017-07-02T08:57:33.815Z,20
2017-07-02T08:58:34.399Z,20
2017-07-02T08:59:34.977Z,20
2017-07-02T09:00:35.559Z,20
2017-07-02T09:01:36.140Z,20
2017-07-02T09:02:36.721Z,20
2017-07-02T09:03:37.302Z,20
2017-07-02T09:04:37.899Z,20
2017-07-02T09:05:38.496Z,20
2017-07-02T09:06:39.079Z,20
2017-07-02T09:07:39.659Z,20
2017-07-02T09:08:40.240Z,20
2017-07-02T09:09:40.824Z,15
2017-07-02T09:10:41.403Z,15
2017-07-02T09:11:41.986Z,20
2017-07-02T09:12:42.570Z,15
2017-07-02T09:13:43.150Z,15
2017-07-02T09:14:43.730Z,20
2017-07-02T09:15:44.312Z,20
2017-07-02T09:16:44.896Z,20
2017-07-02T09:17:45.474Z,20
2017-07-02T09:18:46.058Z,20
2017-07-02T09:19:46.655Z,20
2017-07-02T09:20:47.236Z,20
2017-07-02T09:21:47.819Z,20
2017-07-02T09:22:48.415Z,20
2017-07-02T09:23:48.997Z,20
2017-07-02T09:24:49.581Z,20
2017-07-02T09:25:50.175Z,20
2017-07-02T09:26:50.757Z,25
2017-07-02T09:27:51.354Z,25
2017-07-02T09:28:51.938Z,20
2017-07-02T09:29:52.534Z,25
2017-07-02T09:30:53.115Z,25
2017-07-02T09:31:53.697Z,25
2017-07-02T09:32:54.279Z,25
2017-07-02T09:33:54.860Z,25
2017-07-02T09:34:55.442Z,25
2017-07-02T09:35:56.025Z,20
2017-07-02T09:36:56.606Z,20
2017-07-02T09:37:57.188Z,20
2017-07-02T09:38:57.771Z,20
2017-07-02T09:39:58.351Z,20
2017-07-02T09:40:58.934Z,20
2017-07-02T09:41:59.518Z,20
2017-07-02T09:43:00.100Z,25
2017-07-02T09:44:00.700Z,20
2017-07-02T09:45:01.281Z,20
2017-07-02T09:46:01.862Z,20
2017-07-02T09:47:02.445Z,20
2017-07-02T09:48:03.028Z,25
2017-07-02T09:49:03.614Z,30
2017-07-02T09:50:04.195Z,35
2017-07-02T09:51:04.773Z,35
2017-07-02T09:52:05.354Z,30
2017-07-02T09:53:05.937Z,30
2017-07-02T09:54:06.518Z,30
2017-07-02T09:55:07.101Z,30
2017-07-02T09:56:07.696Z,25
2017-07-02T09:57:08.279Z,20
2017-07-02T09:58:08.860Z,20
2017-07-02T09:59:09.442Z,25
2017-07-02T10:00:10.026Z,20
2017-07-02T10:01:10.607Z,20
2017-07-02T10:02:11.189Z,20
2017-07-02T10:03:11.773Z,20
2017-07-02T10:04:12.353Z,25
2017-07-02T10:05:12.935Z,35
2017-07-02T10:06:13.533Z,35
2017-07-02T10:07:14.115Z,35
2017-07-02T10:08:14.697Z,30
2017-07-02T10:09:15.280Z,30
2017-07-02T10:10:15.863Z,30
2017-07-02T10:11:16.446Z,35
2017-07-02T10:12:17.027Z,35
2017-07-02T10:13:17.610Z,35
2017-07-02T10:14:18.191Z,35
2017-07-02T10:15:18.774Z,35
2017-07-02T10:16:19.358Z,35
2017-07-02T10:17:19.940Z,30
2017-07-02T10:18:20.521Z,30
2017-07-02T10:19:21.105Z,25
2017-07-02T10:20:21.687Z,25
2017-07-02T10:21:22.270Z,20
2017-07-02T10:22:22.854Z,20
2017-07-02T10:23:23.435Z,20
2017-07-02T10:24:24.017Z,20
2017-07-02T10:25:24.600Z,20
2017-07-02T10:26:25.182Z,20
2017-07-02T10:27:25.764Z,20
2017-07-02T10:28:26.361Z,20
2017-07-02T10:29:26.944Z,20
2017-07-02T10:30:27.525Z,20
2017-07-02T10:31:28.108Z,15
2017-07-02T10:32:28.691Z,15
2017-07-02T10:33:29.273Z,15
2017-07-02T10:34:29.854Z,20
2017-07-02T10:35:30.438Z,15
2017-07-02T10:36:31.019Z,20
2017-07-02T10:37:31.600Z,20
2017-07-02T10:38:32.184Z,20
2017-07-02T10:39:32.781Z,20
2017-07-02T10:40:33.363Z,20
2017-07-02T10:41:33.961Z,20
2017-07-02T10:42:34.543Z,20
2017-07-02T10:43:35.126Z,20
2017-07-02T10:44:35.708Z,20
2017-07-02T10:45:36.290Z,20
2017-07-02T10:46:36.874Z,20
2017-07-02T10:47:37.454Z,20
2017-07-02T10:48:38.036Z,20
2017-07-02T10:49:38.633Z,20
2017-07-02T10:50:39.217Z,20
2017-07-02T10:51:39.798Z,20
2017-07-02T10:52:40.380Z,20
2017-07-02T10:53:40.964Z,20
2017-07-02T10:54:41.544Z,20
2017-07-02T10:55:42.125Z,20
2017-07-02T10:56:42.723Z,20
2017-07-02T10:57:43.306Z,20
2017-07-02T10:58:43.888Z,15
2017-07-02T10:59:44.469Z,15
2017-07-02T11:00:45.066Z,15
2017-07-02T11:01:45.649Z,15
2017-07-02T11:02:46.231Z,15
2017-07-02T11:03:46.813Z,15
2017-07-02T11:04:47.395Z,15
2017-07-02T11:05:47.978Z,15
2017-07-02T11:06:48.559Z,15
2017-07-02T11:07:49.142Z,20
2017-07-02T11:08:49.724Z,20
2017-07-02T11:09:50.306Z,20
2017-07-02T11:10:50.889Z,20
2017-07-02T11:11:51.470Z,20
2017-07-02T11:12:52.051Z,20
2017-07-02T11:13:52.635Z,25
2017-07-02T11:14:53.216Z,25
2017-07-02T11:15:53.815Z,25
2017-07-02T11:16:54.395Z,25
2017-07-02T11:17:54.978Z,25
2017-07-02T11:18:55.562Z,25
2017-07-02T11:19:56.143Z,25
2017-07-02T11:20:56.726Z,20
2017-07-02T11:21:57.307Z,20
2017-07-02T11:22:57.887Z,20
2017-07-02T11:23:58.470Z,20
2017-07-02T11:24:59.052Z,20
2017-07-02T11:25:59.633Z,20
2017-07-02T11:27:00.216Z,20
2017-07-02T11:28:00.798Z,20
2017-07-02T11:29:01.377Z,25
2017-07-02T11:30:01.960Z,25
2017-07-02T11:31:02.540Z,30
2017-07-02T11:32:03.124Z,30
2017-07-02T11:33:03.705Z,30
2017-07-02T11:34:04.286Z,30
2017-07-02T11:35:04.869Z,35
2017-07-02T11:36:05.452Z,35
2017-07-02T11:37:06.034Z,35
2017-07-02T11:38:06.614Z,35
2017-07-02T11:39:07.198Z,35
2017-07-02T11:40:07.780Z,35
2017-07-02T11:41:08.363Z,35
2017-07-02T11:42:08.948Z,35
2017-07-02T11:43:09.530Z,40
2017-07-02T11:44:10.112Z,40
2017-07-02T11:45:10.697Z,35
2017-07-02T11:46:11.280Z,35
2017-07-02T11:47:11.861Z,35
2017-07-02T11:48:12.445Z,35
2017-07-02T11:49:13.028Z,35
2017-07-02T11:50:13.611Z,40
2017-07-02T11:51:14.196Z,40
2017-07-02T11:52:14.779Z,45
2017-07-02T11:53:15.363Z,45
2017-07-02T11:54:15.947Z,40
2017-07-02T11:55:16.534Z,40
2017-07-02T11:56:17.116Z,40
2017-07-02T11:57:17.718Z,40
2017-07-02T11:58:18.300Z,45
2017-07-02T11:59:18.900Z,45
2017-07-02T12:00:19.484Z,35
2017-07-02T12:01:20.066Z,35
2017-07-02T12:02:20.649Z,45
2017-07-02T12:03:21.233Z,55
2017-07-02T12:04:21.817Z,55
2017-07-02T12:05:22.400Z,55
2017-07-02T12:06:22.983Z,55
2017-07-02T12:07:23.569Z,50
2017-07-02T12:08:24.151Z,50
2017-07-02T12:09:24.733Z,35
2017-07-02T12:10:25.319Z,50
2017-07-02T12:11:25.902Z,55
2017-07-02T12:12:26.489Z,65
2017-07-02T12:13:27.071Z,40
2017-07-02T12:14:27.655Z,40
2017-07-02T12:15:28.239Z,50
2017-07-02T12:16:28.822Z,35
2017-07-02T12:17:29.406Z,40
2017-07-02T12:18:29.991Z,40
2017-07-02T12:19:30.575Z,40
2017-07-02T12:20:31.159Z,50
2017-07-02T12:21:31.759Z,45
2017-07-02T12:22:32.358Z,40
2017-07-02T12:23:32.940Z,45
2017-07-02T12:24:33.522Z,65
2017-07-02T12:25:34.106Z,40
2017-07-02T12:26:34.690Z,40
2017-07-02T12:27:35.274Z,40
2017-07-02T12:28:35.860Z,40
2017-07-02T12:29:36.442Z,40
2017-07-02T12:30:37.026Z,40
2017-07-02T12:31:37.612Z,45
2017-07-02T12:32:38.195Z,45
2017-07-02T12:33:38.779Z,55
2017-07-02T12:34:39.366Z,65
2017-07-02T12:35:39.964Z,55
2017-07-02T12:36:40.549Z,45
2017-07-02T12:37:41.134Z,40
2017-07-02T12:38:41.719Z,50
2017-07-02T12:39:42.302Z,40
2017-07-02T12:40:42.887Z,45
2017-07-02T12:41:43.472Z,40
2017-07-02T12:42:44.058Z,40
2017-07-02T12:43:44.642Z,40
2017-07-02T12:44:45.227Z,40
2017-07-02T12:45:45.825Z,40
2017-07-02T12:46:46.410Z,40
2017-07-02T12:47:46.994Z,60
2017-07-02T12:48:47.578Z,60
2017-07-02T12:49:48.162Z,30
2017-07-02T12:50:48.745Z,35
2017-07-02T12:51:49.342Z,55
2017-07-02T12:52:49.926Z,35
2017-07-02T12:53:50.516Z,60
2017-07-02T12:54:51.113Z,55
2017-07-02T12:55:51.699Z,55
2017-07-02T12:56:52.283Z,60
2017-07-02T12:57:52.869Z,60
2017-07-02T12:58:53.452Z,65
2017-07-02T12:59:54.037Z,65
2017-07-02T13:00:54.622Z,65
2017-07-02T13:01:55.206Z,65
2017-07-02T13:02:55.792Z,45
2017-07-02T13:03:56.374Z,35
2017-07-02T13:04:56.959Z,45
2017-07-02T13:05:57.544Z,40
2017-07-02T13:06:58.129Z,35
2017-07-02T13:07:58.715Z,35
2017-07-02T13:08:59.297Z,35
2017-07-02T13:09:59.879Z,35
2017-07-02T13:11:00.500Z,35
2017-07-02T13:12:01.085Z,40
2017-07-02T13:13:01.672Z,40
2017-07-02T13:14:02.255Z,65
2017-07-02T13:15:02.839Z,65
2017-07-02T13:16:03.426Z,65
2017-07-02T13:17:04.012Z,70
2017-07-02T13:18:04.594Z,65
2017-07-02T13:19:05.178Z,65
2017-07-02T13:20:05.762Z,40
2017-07-02T13:21:06.349Z,45
2017-07-02T13:22:06.932Z,35
2017-07-02T13:23:07.517Z,40
2017-07-02T13:24:08.102Z,40
2017-07-02T13:25:08.688Z,60
2017-07-02T13:26:09.272Z,35
2017-07-02T13:27:09.854Z,30
2017-07-02T13:28:10.439Z,25
2017-07-02T13:29:11.023Z,25
2017-07-02T13:30:11.608Z,20
2017-07-02T13:31:12.193Z,20
2017-07-02T13:32:12.775Z,25
2017-07-02T13:33:13.360Z,25
2017-07-02T13:34:13.944Z,25
2017-07-02T13:35:14.528Z,30
2017-07-02T13:36:15.113Z,35
2017-07-02T13:37:15.697Z,25
2017-07-02T13:38:16.281Z,25
2017-07-02T13:39:16.865Z,25
2017-07-02T13:40:17.449Z,25
2017-07-02T13:41:18.035Z,55
2017-07-02T13:42:18.620Z,55
2017-07-02T13:43:19.206Z,55
2017-07-02T13:44:19.792Z,55
2017-07-02T13:45:20.378Z,55
2017-07-02T13:46:20.961Z,60
2017-07-02T13:47:21.548Z,55
2017-07-02T13:48:22.133Z,55
2017-07-02T13:49:22.717Z,55
2017-07-02T13:50:23.304Z,55
2017-07-02T13:51:23.888Z,55
2017-07-02T13:52:24.473Z,55
2017-07-02T13:53:25.060Z,55
2017-07-02T13:54:25.644Z,55
2017-07-02T13:55:26.247Z,60
2017-07-02T13:56:26.831Z,60
2017-07-02T13:57:27.415Z,60
2017-07-02T13:58:28.002Z,60
2017-07-02T13:59:28.590Z,65
2017-07-02T14:00:29.170Z,35
2017-07-02T14:01:29.757Z,30
2017-07-02T14:02:30.342Z,45
2017-07-02T14:03:30.925Z,30
2017-07-02T14:04:31.510Z,30
2017-07-02T14:05:32.094Z,30
2017-07-02T14:06:32.678Z,30
2017-07-02T14:07:33.264Z,40
2017-07-02T14:08:33.849Z,55
2017-07-02T14:09:34.435Z,60
2017-07-02T14:10:35.023Z,60
2017-07-02T14:11:35.607Z,60
2017-07-02T14:12:36.193Z,65
2017-07-02T14:13:36.794Z,65
2017-07-02T14:14:37.379Z,60
2017-07-02T14:15:37.966Z,30
2017-07-02T14:16:38.548Z,30
2017-07-02T14:17:39.133Z,30
2017-07-02T14:18:39.734Z,40
2017-07-02T14:19:40.322Z,60
2017-07-02T14:20:40.908Z,60
2017-07-02T14:21:41.495Z,65
2017-07-02T14:22:42.080Z,70
2017-07-02T14:23:42.666Z,75
2017-07-02T14:24:43.251Z,45
2017-07-02T14:25:43.835Z,35
2017-07-02T14:26:44.424Z,40
2017-07-02T14:27:45.008Z,70
2017-07-02T14:28:45.592Z,30
2017-07-02T14:29:46.178Z,30
2017-07-02T14:30:46.763Z,30
2017-07-02T14:31:47.347Z,80
2017-07-02T14:32:47.935Z,40
2017-07-02T14:33:48.520Z,85
2017-07-02T14:34:49.105Z,85
2017-07-02T14:35:49.691Z,85